Latest Coastal Weather Observations for Portland Harbour

IDV60701

Issued at 1:41 am EST Thursday 25 May 2017 (issued every 10 minutes, with the page automatically refreshed every 10 minutes)

About coastal observations | Map of coastal stations | Coastal observations for VIC | Marine services | Other Formats
Station Details ID: 090192 Name: PORTLAND NTC AWS Lat: -38.34 Lon: 141.61 Height: 0.0 m
Data from the previous 72 hours. | See also: Recent months for locations in Victoria
Date/Time
EST
Temp
°C
Wind Pressure Rain since
9am
mm
Weather Cloud Vis
km
Sea
Height
m
Swell
Dir  Spd
kts
Gust
kts
hPa Trend Height
m
Period
s
Dir
25/01:30am 13.2 NNW 7 9 1018.1 - - - - - - - - -
25/01:00am 13.2 NNW 9 12 1018.2 - - - - - - - - -
25/12:30am 13.7 NNW 10 12 1018.4 - - - - - - - - -
25/12:00am 13.5 NNW 9 11 1018.6 - - - - - - - - -
 
Date/Time
EST
Temp
°C
Wind Pressure Rain since
9am
mm
Weather Cloud Vis
km
Sea
Height
m
Swell
Dir  Spd
kts
Gust
kts
hPa Trend Height
m
Period
s
Dir
24/11:30pm 13.4 NW 8 11 1018.8 - - - - - - - - -
24/11:00pm 13.6 NW 5 8 1018.8 - - - - - - - - -
24/10:30pm 13.4 WNW 5 9 1019.0 - - - - - - - - -
24/10:00pm 13.5 NW 5 8 1019.0 - - - - - - - - -
24/09:30pm 13.3 WNW 6 10 1019.2 - - - - - - - - -
24/09:00pm 13.3 NW 6 9 1019.0 - - - - - - - - -
24/08:30pm 13.4 NNW 7 9 1019.0 - - - - - - - - -
24/08:00pm 13.3 NW 5 10 1019.1 - - - - - - - - -
24/07:30pm 13.4 NW 5 7 1019.0 - - - - - - - - -
24/07:00pm 13.8 NNW 9 13 1018.9 - - - - - - - - -
24/06:30pm 14.5 WNW 5 8 1018.5 - - - - - - - - -
24/06:00pm 14.3 WNW 5 8 1018.3 - - - - - - - - -
24/05:30pm 14.4 W 10 16 1018.0 - - - - - - - - -
24/05:00pm 14.3 W 10 15 1017.9 - - - - - - - - -
24/04:30pm 14.9 WSW 11 16 1017.7 - - - - - - - - -
24/04:00pm 15.1 W 11 16 1017.4 - - - - - - - - -
24/03:30pm 14.6 WSW 10 14 1017.1 - - - - - - - - -
24/03:00pm 15.4 W 14 21 1016.8 - - - - - - - - -
24/02:30pm 15.5 WSW 15 21 1016.6 - - - - - - - - -
24/02:00pm 14.6 WSW 16 25 1016.6 - - - - - - - - -
24/01:53pm 14.8 W 15 25 1016.5 - - - - - - - - -
24/01:30pm 15.0 W 15 21 1016.4 - - - - - - - - -
24/01:00pm 14.7 W 11 15 1016.4 - - - - - - - - -
24/12:30pm 15.3 W 13 20 1016.5 - - - - - - - - -
24/12:00pm 15.4 W 12 20 1016.6 - - - - - - - - -
24/11:30am 15.4 WSW 12 19 1016.8 - - - - - - - - -
24/11:00am 15.1 WSW 14 20 1016.6 - - - - - - - - -
24/10:30am 15.0 WSW 14 20 1016.4 - - - - - - - - -
24/10:00am 14.9 WSW 12 18 1016.3 - - - - - - - - -
24/09:30am 14.4 WSW 11 19 1015.9 - - - - - - - - -
24/09:00am 14.3 WSW 12 21 1015.5 - - - - - - - - -
24/08:30am 13.3 W 9 13 1015.1 - - - - - - - - -
24/08:00am 13.1 WSW 8 13 1014.7 - - - - - - - - -
24/07:30am 13.5 WSW 7 12 1014.3 - - - - - - - - -
24/07:00am 13.0 WNW 3 6 1013.8 - - - - - - - - -
24/06:30am 12.9 NW 4 7 1013.6 - - - - - - - - -
24/06:00am 13.1 WSW 9 19 1013.0 - - - - - - - - -
24/05:30am 12.4 NW 5 6 1012.7 - - - - - - - - -
24/05:00am 12.1 W 4 8 1012.2 - - - - - - - - -
24/04:30am 11.9 NW 7 11 1011.9 - - - - - - - - -
24/04:00am 11.7 NW 7 10 1011.9 - - - - - - - - -
24/03:30am 11.8 WNW 7 11 1011.8 - - - - - - - - -
24/03:00am 11.9 NW 5 9 1011.4 - - - - - - - - -
24/02:30am 11.7 NW 8 13 1011.2 - - - - - - - - -
24/02:00am 12.0 NW 6 11 1011.0 - - - - - - - - -
24/01:30am 12.2 NW 8 14 1011.2 - - - - - - - - -
24/01:00am 12.4 NW 13 20 1011.2 - - - - - - - - -
24/12:30am 12.3 WNW 11 14 1011.3 - - - - - - - - -
24/12:00am 12.3 NW 12 18 1011.3 - - - - - - - - -
 
Date/Time
EST
Temp
°C
Wind Pressure Rain since
9am
mm
Weather Cloud Vis
km
Sea
Height
m
Swell
Dir  Spd
kts
Gust
kts
hPa Trend Height
m
Period
s
Dir
23/11:30pm 12.2 NNW 11 14 1011.3 - - - - - - - - -
23/11:00pm 12.1 NNW 12 16 1011.4 - - - - - - - - -
23/10:30pm 12.2 NNW 12 17 1011.7 - - - - - - - - -
23/10:00pm 12.2 NNW 11 16 1011.6 - - - - - - - - -
23/09:30pm 12.3 NW 11 16 1011.7 - - - - - - - - -
23/09:00pm 12.5 NW 9 13 1011.7 - - - - - - - - -
23/08:30pm 13.3 NW 14 20 1012.0 - - - - - - - - -
23/08:00pm 13.7 N 11 14 1011.7 - - - - - - - - -
23/07:30pm 13.3 N 5 6 1011.7 - - - - - - - - -
23/07:00pm 12.8 NNW 3 4 1011.8 - - - - - - - - -
23/06:30pm 12.6 W 4 6 1011.7 - - - - - - - - -
23/06:00pm 12.8 W 11 18 1012.1 - - - - - - - - -
23/05:30pm 13.8 NW 5 8 1012.2 - - - - - - - - -
23/05:00pm 13.9 NNW 7 11 1012.3 - - - - - - - - -
23/04:30pm 14.0 NNW 6 8 1012.0 - - - - - - - - -
23/04:00pm 13.8 NNW 12 16 1012.1 - - - - - - - - -
23/03:30pm 16.6 NNW 10 14 1011.8 - - - - - - - - -
23/03:00pm 17.0 NW 12 18 1011.8 - - - - - - - - -
23/02:30pm 17.2 NNW 14 21 1011.9 - - - - - - - - -
23/02:00pm 17.1 NNW 10 15 1012.2 - - - - - - - - -
23/01:30pm 16.7 NNW 14 19 1012.5 - - - - - - - - -
23/01:00pm 16.6 NNW 14 20 1013.0 - - - - - - - - -
23/12:30pm 16.5 NNW 12 17 1013.5 - - - - - - - - -
23/12:00pm 16.1 NNW 10 15 1014.1 - - - - - - - - -
23/11:30am 15.2 NNW 12 16 1014.8 - - - - - - - - -
23/11:00am 15.1 N 11 13 1014.8 - - - - - - - - -
23/10:30am 14.5 NNW 10 13 1014.9 - - - - - - - - -
23/10:00am 13.9 NNW 11 13 1015.1 - - - - - - - - -
23/09:30am 13.3 NW 9 14 1015.3 - - - - - - - - -
23/09:00am 12.9 NW 10 15 1015.5 - - - - - - - - -
23/08:30am 13.0 NNW 10 13 1015.4 - - - - - - - - -
23/08:00am 12.8 NNW 9 12 1015.1 - - - - - - - - -
23/07:30am 12.6 NW 9 13 1014.9 - - - - - - - - -
23/07:00am 12.6 NW 6 9 1014.6 - - - - - - - - -
23/06:30am 12.9 NNW 9 11 1014.5 - - - - - - - - -
23/06:00am 13.1 NW 5 7 1014.4 - - - - - - - - -
23/05:30am 13.4 NNW 7 8 1014.1 - - - - - - - - -
23/05:00am 13.7 NW 7 10 1014.0 - - - - - - - - -
23/04:30am 13.9 NNW 10 13 1013.9 - - - - - - - - -
23/04:00am 14.3 NNW 9 12 1013.8 - - - - - - - - -
23/03:30am 14.6 NNW 9 14 1013.8 - - - - - - - - -
23/03:00am 14.9 NNW 12 16 1014.0 - - - - - - - - -
23/02:30am 14.9 NNW 12 16 1013.9 - - - - - - - - -
23/02:00am 14.9 NW 9 14 1013.9 - - - - - - - - -
23/01:30am 14.9 N 14 18 1013.7 - - - - - - - - -
23/01:00am 15.0 NNW 12 15 1013.9 - - - - - - - - -
23/12:30am 15.1 NNW 8 11 1014.0 - - - - - - - - -
23/12:00am 15.2 NNW 12 17 1014.3 - - - - - - - - -
 
Date/Time
EST
Temp
°C
Wind Pressure Rain since
9am
mm
Weather Cloud Vis
km
Sea
Height
m
Swell
Dir  Spd
kts
Gust
kts
hPa Trend Height
m
Period
s
Dir
22/11:30pm 15.3 N 18 22 1014.0 - - - - - - - - -
22/11:00pm 15.5 N 16 19 1014.0 - - - - - - - - -
22/10:30pm 15.5 NW 12 18 1014.9 - - - - - - - - -
22/10:00pm 16.6 NW 14 23 1015.0 - - - - - - - - -
22/09:30pm 17.5 NNW 23 35 1014.1 - - - - - - - - -
22/09:15pm 18.1 NNW 19 30 1014.0 - - - - - - - - -
22/09:00pm 17.9 NNW 16 21 1013.8 - - - - - - - - -
22/08:30pm 17.8 N 13 18 1013.5 - - - - - - - - -
22/08:00pm 17.9 NNW 11 14 1013.5 - - - - - - - - -
22/07:30pm 17.8 N 14 18 1013.2 - - - - - - - - -
22/07:00pm 17.8 N 15 18 1012.9 - - - - - - - - -
22/06:30pm 18.0 N 13 17 1012.9 - - - - - - - - -
22/06:00pm 18.3 N 17 21 1012.8 - - - - - - - - -
22/05:30pm 18.3 N 20 24 1012.8 - - - - - - - - -
22/05:00pm 18.7 N 18 23 1012.5 - - - - - - - - -
22/04:30pm 19.2 N 21 28 1012.6 - - - - - - - - -
22/04:00pm 19.4 N 24 30 1012.5 - - - - - - - - -
22/03:30pm 19.8 N 22 29 1012.4 - - - - - - - - -
22/03:00pm 19.6 N 24 29 1012.5 - - - - - - - - -
22/02:30pm 19.3 N 24 31 1012.4 - - - - - - - - -
22/02:00pm 18.9 N 22 29 1013.0 - - - - - - - - -
22/01:53pm 18.9 N 21 31 1013.1 - - - - - - - - -
22/01:30pm 19.1 NNW 21 26 1013.5 - - - - - - - - -
22/01:00pm 19.4 N 19 28 1013.6 - - - - - - - - -
22/12:54pm 18.8 N 17 28 1013.8 - - - - - - - - -
22/12:30pm 18.8 N 19 25 1014.4 - - - - - - - - -
22/12:00pm 18.5 N 17 23 1014.6 - - - - - - - - -
22/11:30am 17.4 N 18 25 1014.7 - - - - - - - - -
22/11:00am 16.7 N 20 28 1015.1 - - - - - - - - -
22/10:30am 16.3 N 20 24 1015.4 - - - - - - - - -
22/10:00am 15.6 N 17 21 1016.0 - - - - - - - - -
22/09:30am 14.9 N 17 20 1016.5 - - - - - - - - -
22/09:00am 14.4 N 15 19 1016.9 - - - - - - - - -
22/08:30am 14.3 N 15 19 1016.8 - - - - - - - - -
22/08:00am 14.0 N 17 21 1016.7 - - - - - - - - -
22/07:30am 13.8 N 15 19 1016.7 - - - - - - - - -
22/07:00am 13.7 NNE 9 13 1016.8 - - - - - - - - -
22/06:30am 13.7 NE 8 11 1016.8 - - - - - - - - -
22/06:00am 13.7 NNE 9 11 1016.9 - - - - - - - - -
22/05:30am 13.4 N 5 7 1016.9 - - - - - - - - -
22/05:00am 12.8 NNW 1 3 1017.0 - - - - - - - - -
22/04:30am 13.4 N 5 7 1017.0 - - - - - - - - -
22/04:00am 13.5 NNE 8 11 1017.0 - - - - - - - - -
22/03:30am 13.6 N 7 9 1017.2 - - - - - - - - -
22/03:00am 14.0 NNE 6 9 1017.4 - - - - - - - - -
22/02:30am 14.2 N 7 9 1017.5 - - - - - - - - -
22/02:00am 13.9 NNE 6 8 1017.5 - - - - - - - - -

Other Formats:

Comma delimited format used in spreadsheet applications
http://www.bom.gov.au/fwo/IDV60701/IDV60701.95826.axf

JavaScript Object Notation format (JSON) in row-major order
http://www.bom.gov.au/fwo/IDV60701/IDV60701.95826.json